createdAt,value
2023-04-12T05:03:10.480Z,500.00
2023-04-12T05:04:11.533Z,500.00
2023-04-12T05:05:10.468Z,500.00
2023-04-12T05:06:11.487Z,500.00
2023-04-12T05:07:11.525Z,500.00
2023-04-12T05:08:11.545Z,500.00
2023-04-12T05:09:11.538Z,400.00
2023-04-12T05:10:11.602Z,400.00
2023-04-12T05:11:11.636Z,400.00
2023-04-12T05:12:10.674Z,400.00
2023-04-12T05:13:10.703Z,400.00
2023-04-12T05:14:12.365Z,400.00
2023-04-12T05:15:12.467Z,400.00
2023-04-12T05:16:11.800Z,400.00
2023-04-12T05:17:11.774Z,400.00
2023-04-12T05:18:11.742Z,400.00
2023-04-12T05:19:11.785Z,400.00
2023-04-12T05:20:11.764Z,400.00
2023-04-12T05:21:10.784Z,410.00
2023-04-12T05:22:11.761Z,444.00
2023-04-12T05:23:11.789Z,486.00
2023-04-12T05:24:11.774Z,502.00
2023-04-12T05:25:11.815Z,500.00
2023-04-12T05:26:10.765Z,506.00
2023-04-12T05:27:11.767Z,500.00
2023-04-12T05:28:10.765Z,501.00
2023-04-12T05:29:10.755Z,506.00
2023-04-12T05:30:10.750Z,501.00
2023-04-12T05:31:11.851Z,506.00
2023-04-12T05:32:10.843Z,503.00
2023-04-12T05:33:11.773Z,502.00
2023-04-12T05:34:11.783Z,501.00
2023-04-12T05:35:11.817Z,500.00
2023-04-12T05:36:11.797Z,501.00
2023-04-12T05:37:11.847Z,503.00
2023-04-12T05:38:10.830Z,498.00
2023-04-12T05:39:11.873Z,506.00
2023-04-12T05:40:10.895Z,504.00
2023-04-12T05:41:10.971Z,504.00
2023-04-12T05:42:11.959Z,504.00
2023-04-12T05:43:11.992Z,502.00
2023-04-12T05:44:12.005Z,505.00
2023-04-12T05:45:11.996Z,503.00
2023-04-12T05:46:11.070Z,502.00
2023-04-12T05:47:12.119Z,507.00
2023-04-12T05:48:11.150Z,500.00
2023-04-12T05:49:12.089Z,503.00
2023-04-12T05:50:11.125Z,506.00
2023-04-12T05:51:12.146Z,503.00
2023-04-12T05:52:12.540Z,503.00
2023-04-12T05:53:11.183Z,500.00
2023-04-12T05:54:12.208Z,500.00
2023-04-12T05:55:12.233Z,502.00
2023-04-12T05:56:11.250Z,503.00
2023-04-12T05:57:12.262Z,500.00
2023-04-12T05:58:12.307Z,504.00
2023-04-12T05:59:12.321Z,500.00
2023-04-12T06:00:12.331Z,505.00
2023-04-12T06:01:12.366Z,507.00
2023-04-12T06:02:12.618Z,500.00
2023-04-12T06:03:12.455Z,505.00
2023-04-12T06:04:11.559Z,500.00
2023-04-12T06:05:12.583Z,504.00
2023-04-12T06:06:12.478Z,505.00
2023-04-12T06:07:12.508Z,501.00
2023-04-12T06:08:12.504Z,511.00
2023-04-12T06:09:12.534Z,511.00
2023-04-12T06:10:11.546Z,502.00
2023-04-12T06:11:12.564Z,502.00
2023-04-12T06:12:11.585Z,502.00
2023-04-12T06:13:12.583Z,504.00
2023-04-12T06:14:12.580Z,505.00
2023-04-12T06:15:11.597Z,505.00
2023-04-12T06:16:12.639Z,505.00
2023-04-12T06:17:12.029Z,512.00
2023-04-12T06:18:11.713Z,505.00
2023-04-12T06:19:12.687Z,509.00
2023-04-12T06:20:12.648Z,501.00
2023-04-12T06:21:12.697Z,503.00
2023-04-12T06:22:12.734Z,502.00
2023-04-12T06:23:11.675Z,511.00
2023-04-12T06:24:12.677Z,512.00
2023-04-12T06:25:12.648Z,508.00
2023-04-12T06:26:11.678Z,505.00
2023-04-12T06:27:12.661Z,507.00
2023-04-12T06:28:12.744Z,512.00
2023-04-12T06:29:12.686Z,515.00
2023-04-12T06:30:12.703Z,512.00
2023-04-12T06:31:12.726Z,519.00
2023-04-12T06:32:12.717Z,518.00
2023-04-12T06:33:11.754Z,517.00
2023-04-12T06:34:12.729Z,517.00
2023-04-12T06:35:12.750Z,519.00
2023-04-12T06:36:12.835Z,517.00
2023-04-12T06:37:11.791Z,517.00
2023-04-12T06:38:11.818Z,515.00
2023-04-12T06:39:12.844Z,519.00
2023-04-12T06:40:12.848Z,526.00
2023-04-12T06:41:12.868Z,523.00
2023-04-12T06:42:14.417Z,522.00
2023-04-12T06:43:12.885Z,527.00
2023-04-12T06:44:12.903Z,532.00
2023-04-12T06:45:12.887Z,527.00
2023-04-12T06:46:12.860Z,527.00
2023-04-12T06:47:12.883Z,530.00
2023-04-12T06:48:12.857Z,529.00
2023-04-12T06:49:12.852Z,533.00
2023-04-12T06:50:11.821Z,532.00
2023-04-12T06:51:12.848Z,537.00
2023-04-12T06:52:13.031Z,541.00
2023-04-12T06:53:11.826Z,534.00
2023-04-12T06:54:12.806Z,538.00
2023-04-12T06:55:12.828Z,543.00
2023-04-12T06:56:12.814Z,542.00
2023-04-12T06:57:13.031Z,543.00
2023-04-12T06:58:11.784Z,543.00
2023-04-12T06:59:11.770Z,540.00
2023-04-12T07:00:12.769Z,546.00
2023-04-12T07:01:12.819Z,544.00
2023-04-12T07:02:12.811Z,551.00
2023-04-12T07:03:12.946Z,552.00
2023-04-12T07:04:11.825Z,548.00
2023-04-12T07:05:11.750Z,551.00
2023-04-12T07:06:24.457Z,550.00
2023-04-12T07:07:12.737Z,550.00
2023-04-12T07:08:11.731Z,551.00
2023-04-12T07:09:11.793Z,554.00
2023-04-12T07:10:11.702Z,554.00
2023-04-12T07:11:20.978Z,559.00
2023-04-12T07:12:12.696Z,551.00
2023-04-12T07:13:11.702Z,552.00
2023-04-12T07:14:11.681Z,555.00
2023-04-12T07:15:11.666Z,559.00
2023-04-12T07:16:11.688Z,564.00
2023-04-12T07:17:11.656Z,570.00
2023-04-12T07:18:12.663Z,558.00
2023-04-12T07:19:12.640Z,567.00
2023-04-12T07:20:12.645Z,564.00
2023-04-12T07:21:12.623Z,571.00
2023-04-12T07:22:13.799Z,568.00
2023-04-12T07:23:12.802Z,569.00
2023-04-12T07:24:13.532Z,572.00
2023-04-12T07:25:11.912Z,572.00
2023-04-12T07:26:12.989Z,571.00
2023-04-12T07:27:13.136Z,576.00
2023-04-12T07:28:13.113Z,572.00
2023-04-12T07:29:13.163Z,571.00
2023-04-12T07:30:13.245Z,578.00
2023-04-12T07:31:13.309Z,572.00
2023-04-12T07:32:13.602Z,572.00
2023-04-12T07:33:19.512Z,575.00
2023-04-12T07:34:13.473Z,575.00
2023-04-12T07:35:12.413Z,576.00
2023-04-12T07:36:13.431Z,574.00
2023-04-12T07:37:13.410Z,575.00
2023-04-12T07:38:14.550Z,571.00
2023-04-12T07:39:13.392Z,575.00
2023-04-12T07:40:13.370Z,575.00
2023-04-12T07:41:12.372Z,572.00
2023-04-12T07:42:13.406Z,575.00
2023-04-12T07:43:13.435Z,568.00
2023-04-12T07:44:12.349Z,570.00
2023-04-12T07:45:12.348Z,562.00
2023-04-12T07:46:13.407Z,564.00
2023-04-12T07:47:13.340Z,562.00
2023-04-12T07:48:12.558Z,565.00
2023-04-12T07:49:13.323Z,564.00
2023-04-12T07:50:13.474Z,562.00
2023-04-12T07:51:13.330Z,561.00
2023-04-12T07:52:13.311Z,557.00
2023-04-12T07:53:13.561Z,564.00
2023-04-12T07:54:13.315Z,563.00
2023-04-12T07:55:13.286Z,570.00
2023-04-12T07:56:13.305Z,563.00
2023-04-12T07:57:13.279Z,571.00
2023-04-12T07:58:13.274Z,573.00
2023-04-12T07:59:13.273Z,566.00
2023-04-12T08:00:13.242Z,577.00
2023-04-12T08:01:13.247Z,581.00
2023-04-12T08:02:12.330Z,578.00
2023-04-12T08:03:13.420Z,584.00
2023-04-12T08:04:13.338Z,584.00
2023-04-12T08:05:13.223Z,582.00
2023-04-12T08:06:13.357Z,584.00
2023-04-12T08:07:12.185Z,583.00
2023-04-12T08:08:13.184Z,583.00
2023-04-12T08:09:13.194Z,586.00
2023-04-12T08:10:13.232Z,581.00
2023-04-12T08:11:12.258Z,590.00
2023-04-12T08:12:13.277Z,589.00
2023-04-12T08:13:13.294Z,595.00
2023-04-12T08:14:13.293Z,593.00
2023-04-12T08:15:13.340Z,595.00
2023-04-12T08:16:12.343Z,596.00
2023-04-12T08:17:13.342Z,597.00
2023-04-12T08:18:13.354Z,597.00
2023-04-12T08:19:12.348Z,603.00
2023-04-12T08:20:13.393Z,612.00
2023-04-12T08:21:12.372Z,622.00
2023-04-12T08:22:13.761Z,715.00
2023-04-12T08:23:13.713Z,830.00
2023-04-12T08:24:12.394Z,725.00
2023-04-12T08:25:12.392Z,682.00
2023-04-12T08:26:12.391Z,666.00
2023-04-12T08:27:12.407Z,658.00
2023-04-12T08:28:13.390Z,660.00
2023-04-12T08:29:13.390Z,639.00
2023-04-12T08:30:12.382Z,650.00
2023-04-12T08:31:13.481Z,652.00
2023-04-12T08:32:13.377Z,648.00
2023-04-12T08:33:13.377Z,650.00
2023-04-12T08:34:13.399Z,641.00
2023-04-12T08:35:13.402Z,648.00
2023-04-12T08:36:13.420Z,649.00
2023-04-12T08:37:13.388Z,650.00
2023-04-12T08:38:12.384Z,647.00
2023-04-12T08:39:13.390Z,643.00
2023-04-12T08:40:13.410Z,638.00
2023-04-12T08:41:13.951Z,638.00
2023-04-12T08:42:13.445Z,645.00
2023-04-12T08:43:12.578Z,643.00
2023-04-12T08:44:13.453Z,642.00
2023-04-12T08:45:13.459Z,637.00
2023-04-12T08:46:13.494Z,642.00
2023-04-12T08:47:13.486Z,644.00
2023-04-12T08:48:13.615Z,642.00
2023-04-12T08:49:12.443Z,636.00
2023-04-12T08:50:13.471Z,627.00
2023-04-12T08:51:13.465Z,622.00
2023-04-12T08:52:13.492Z,625.00
2023-04-12T08:53:13.533Z,623.00
2023-04-12T08:54:13.515Z,622.00
2023-04-12T08:55:13.525Z,617.00
2023-04-12T08:56:13.568Z,619.00
2023-04-12T08:57:13.640Z,641.00
2023-04-12T08:58:14.098Z,650.00
2023-04-12T08:59:12.656Z,651.00
2023-04-12T09:00:13.702Z,659.00
2023-04-12T09:01:13.697Z,655.00
2023-04-12T09:02:13.812Z,652.00
2023-04-12T09:03:14.406Z,657.00
2023-04-12T09:04:13.954Z,655.00
2023-04-12T09:05:13.738Z,651.00
2023-04-12T09:06:13.714Z,643.00
2023-04-12T09:07:13.713Z,655.00
2023-04-12T09:08:12.721Z,648.00
2023-04-12T09:09:12.723Z,647.00
2023-04-12T09:10:13.735Z,644.00
2023-04-12T09:11:13.773Z,639.00
2023-04-12T09:12:12.763Z,643.00
2023-04-12T09:13:13.788Z,644.00
2023-04-12T09:14:13.828Z,634.00
2023-04-12T09:15:13.099Z,634.00
2023-04-12T09:16:13.028Z,623.00
2023-04-12T09:17:13.944Z,629.00
2023-04-12T09:18:14.517Z,615.00
2023-04-12T09:19:13.034Z,619.00
2023-04-12T09:20:13.991Z,614.00
2023-04-12T09:21:12.973Z,615.00
2023-04-12T09:22:13.970Z,619.00
2023-04-12T09:23:12.959Z,604.00
2023-04-12T09:24:15.032Z,583.00
2023-04-12T09:25:13.977Z,597.00
2023-04-12T09:26:13.947Z,601.00
2023-04-12T09:27:13.033Z,604.00
2023-04-12T09:28:13.941Z,598.00
2023-04-12T09:29:13.918Z,591.00
2023-04-12T09:30:12.947Z,580.00
2023-04-12T09:31:13.979Z,605.00
2023-04-12T09:32:13.973Z,594.00
2023-04-12T09:33:14.011Z,577.00
2023-04-12T09:34:14.061Z,580.00
2023-04-12T09:35:14.274Z,583.00
2023-04-12T09:36:13.168Z,581.00
2023-04-12T09:37:14.237Z,594.00
2023-04-12T09:38:14.300Z,583.00
2023-04-12T09:39:13.317Z,560.00
2023-04-12T09:40:13.396Z,577.00
2023-04-12T09:41:14.371Z,572.00
2023-04-12T09:42:29.990Z,549.00
2023-04-12T09:43:14.396Z,550.00
2023-04-12T09:44:14.387Z,553.00
2023-04-12T09:45:14.363Z,555.00
2023-04-12T09:46:14.441Z,561.00
2023-04-12T09:47:13.449Z,563.00
2023-04-12T09:48:15.202Z,561.00
2023-04-12T09:49:14.346Z,568.00
2023-04-12T09:50:14.365Z,570.00
2023-04-12T09:51:14.454Z,575.00
2023-04-12T09:52:14.358Z,563.00
2023-04-12T09:53:14.620Z,553.00
2023-04-12T09:54:14.375Z,550.00
2023-04-12T09:55:14.316Z,564.00
2023-04-12T09:56:14.286Z,549.00
2023-04-12T09:57:14.292Z,554.00
2023-04-12T09:58:13.569Z,547.00
2023-04-12T09:59:14.281Z,545.00
2023-04-12T10:00:14.402Z,537.00
2023-04-12T10:01:15.889Z,535.00
2023-04-12T10:02:14.412Z,530.00
2023-04-12T10:03:14.458Z,524.00
2023-04-12T10:04:14.477Z,514.00
2023-04-12T10:05:14.471Z,515.00
2023-04-12T10:06:14.224Z,521.00
2023-04-12T10:07:15.224Z,509.00
2023-04-12T10:08:14.192Z,509.00
2023-04-12T10:09:14.212Z,505.00
2023-04-12T10:10:14.214Z,500.00
2023-04-12T10:11:13.186Z,505.00
2023-04-12T10:12:13.161Z,508.00
2023-04-12T10:13:14.191Z,502.00
2023-04-12T10:14:17.093Z,500.00
2023-04-12T10:15:13.231Z,500.00
2023-04-12T10:16:14.216Z,501.00
2023-04-12T10:17:14.141Z,502.00
2023-04-12T10:18:13.164Z,505.00
2023-04-12T10:19:15.115Z,531.00
2023-04-12T10:20:13.104Z,588.00
2023-04-12T10:21:14.085Z,730.00
2023-04-12T10:22:14.117Z,656.00
2023-04-12T10:23:14.103Z,697.00
2023-04-12T10:24:13.056Z,834.00
2023-04-12T10:25:14.067Z,867.00
2023-04-12T10:26:14.055Z,928.00
2023-04-12T10:27:14.049Z,970.00
2023-04-12T10:28:14.065Z,963.00
2023-04-12T10:29:14.019Z,993.00
2023-04-12T10:30:13.048Z,953.00
2023-04-12T10:31:14.050Z,968.00
2023-04-12T10:32:14.081Z,1007.00
2023-04-12T10:33:13.145Z,999.00
2023-04-12T10:34:14.023Z,980.00
2023-04-12T10:35:14.041Z,992.00
2023-04-12T10:36:14.047Z,965.00
2023-04-12T10:37:13.979Z,946.00
2023-04-12T10:38:14.202Z,931.00
2023-04-12T10:39:12.992Z,948.00
2023-04-12T10:40:13.975Z,937.00
2023-04-12T10:41:12.921Z,934.00
2023-04-12T10:42:12.931Z,913.00
2023-04-12T10:43:13.182Z,909.00
2023-04-12T10:44:13.936Z,910.00
2023-04-12T10:45:13.952Z,912.00
2023-04-12T10:46:12.936Z,900.00
2023-04-12T10:47:12.968Z,898.00
2023-04-12T10:48:13.195Z,885.00
2023-04-12T10:49:13.968Z,884.00
2023-04-12T10:50:13.948Z,879.00
2023-04-12T10:51:12.988Z,880.00
2023-04-12T10:52:13.019Z,877.00
2023-04-12T10:53:14.030Z,875.00
2023-04-12T10:54:14.044Z,859.00
2023-04-12T10:55:14.120Z,876.00
2023-04-12T10:56:14.023Z,858.00
2023-04-12T10:57:13.060Z,867.00
2023-04-12T10:58:14.076Z,857.00
2023-04-12T10:59:14.095Z,856.00
2023-04-12T11:00:14.217Z,862.00
2023-04-12T11:01:14.230Z,848.00
2023-04-12T11:02:14.318Z,841.00
2023-04-12T11:03:13.328Z,840.00
2023-04-12T11:04:13.550Z,847.00
2023-04-12T11:05:13.141Z,841.00
2023-04-12T11:06:27.050Z,834.00
2023-04-12T11:07:14.115Z,834.00
2023-04-12T11:08:14.125Z,836.00
2023-04-12T11:09:13.145Z,836.00
2023-04-12T11:10:14.130Z,824.00
2023-04-12T11:11:13.098Z,816.00
2023-04-12T11:12:14.111Z,818.00
2023-04-12T11:13:14.104Z,804.00
2023-04-12T11:14:14.118Z,813.00
2023-04-12T11:15:13.026Z,814.00
2023-04-12T11:16:13.109Z,813.00
2023-04-12T11:17:14.175Z,811.00
2023-04-12T11:18:14.047Z,807.00
2023-04-12T11:19:14.015Z,800.00
2023-04-12T11:20:14.160Z,803.00
2023-04-12T11:21:14.031Z,787.00
2023-04-12T11:22:14.022Z,788.00
2023-04-12T11:23:14.027Z,781.00
2023-04-12T11:24:13.004Z,783.00
2023-04-12T11:25:14.011Z,782.00
2023-04-12T11:26:12.970Z,780.00
2023-04-12T11:27:14.001Z,812.00
2023-04-12T11:28:25.448Z,806.00
2023-04-12T11:29:13.960Z,807.00
2023-04-12T11:30:13.075Z,809.00
2023-04-12T11:31:13.933Z,800.00
2023-04-12T11:32:12.991Z,795.00
2023-04-12T11:33:13.950Z,796.00
2023-04-12T11:34:15.933Z,804.00
2023-04-12T11:35:13.910Z,804.00
2023-04-12T11:36:13.897Z,805.00
2023-04-12T11:37:13.913Z,806.00
2023-04-12T11:38:13.870Z,781.00
2023-04-12T11:39:13.874Z,787.00
2023-04-12T11:40:13.887Z,785.00
2023-04-12T11:41:12.849Z,784.00
2023-04-12T11:42:12.925Z,787.00
2023-04-12T11:43:13.915Z,772.00
2023-04-12T11:44:14.137Z,788.00
2023-04-12T11:45:18.104Z,778.00
2023-04-12T11:46:14.068Z,778.00
2023-04-12T11:47:14.014Z,780.00
2023-04-12T11:48:14.030Z,760.00
2023-04-12T11:49:14.012Z,775.00
2023-04-12T11:50:14.024Z,766.00
2023-04-12T11:51:13.019Z,734.00
2023-04-12T11:52:14.005Z,763.00
2023-04-12T11:53:14.039Z,767.00
2023-04-12T11:54:14.017Z,742.00
2023-04-12T11:55:13.011Z,757.00
2023-04-12T11:56:14.048Z,748.00
2023-04-12T11:57:14.036Z,745.00
2023-04-12T11:58:14.038Z,745.00
2023-04-12T11:59:14.089Z,746.00
2023-04-12T12:00:14.058Z,737.00
2023-04-12T12:01:13.053Z,725.00
2023-04-12T12:02:22.604Z,730.00
2023-04-12T12:03:14.244Z,731.00
2023-04-12T12:04:13.237Z,730.00
2023-04-12T12:05:14.153Z,730.00
2023-04-12T12:06:14.171Z,724.00
2023-04-12T12:07:14.180Z,733.00
2023-04-12T12:08:14.038Z,722.00
2023-04-12T12:09:14.049Z,724.00
2023-04-12T12:10:24.182Z,716.00
2023-04-12T12:11:13.975Z,717.00
2023-04-12T12:12:14.124Z,719.00
2023-04-12T12:13:13.988Z,719.00
2023-04-12T12:14:13.965Z,706.00
2023-04-12T12:15:13.173Z,705.00
2023-04-12T12:16:14.002Z,702.00
2023-04-12T12:17:13.968Z,698.00
2023-04-12T12:18:12.971Z,704.00
2023-04-12T12:19:13.953Z,692.00
2023-04-12T12:20:12.914Z,687.00
2023-04-12T12:21:13.900Z,685.00
2023-04-12T12:22:13.923Z,698.00
2023-04-12T12:23:13.905Z,697.00
2023-04-12T12:24:14.103Z,687.00
2023-04-12T12:25:12.865Z,679.00
2023-04-12T12:26:19.361Z,674.00
2023-04-12T12:27:13.893Z,676.00
2023-04-12T12:28:13.908Z,677.00
2023-04-12T12:29:12.849Z,676.00
2023-04-12T12:30:13.842Z,681.00
2023-04-12T12:31:13.952Z,667.00
2023-04-12T12:32:12.838Z,666.00
2023-04-12T12:33:12.855Z,678.00
2023-04-12T12:34:13.833Z,676.00
2023-04-12T12:35:13.842Z,660.00
2023-04-12T12:36:12.836Z,665.00
2023-04-12T12:37:12.789Z,662.00
2023-04-12T12:38:13.802Z,659.00
2023-04-12T12:39:13.040Z,660.00
2023-04-12T12:40:12.779Z,664.00
2023-04-12T12:41:13.763Z,659.00
2023-04-12T12:42:12.775Z,660.00
2023-04-12T12:43:13.757Z,658.00
2023-04-12T12:44:12.769Z,660.00
2023-04-12T12:45:12.737Z,657.00
2023-04-12T12:46:12.765Z,659.00
2023-04-12T12:47:14.313Z,660.00
2023-04-12T12:48:12.896Z,661.00
2023-04-12T12:49:13.742Z,653.00
2023-04-12T12:50:12.700Z,652.00
2023-04-12T12:51:12.699Z,650.00
2023-04-12T12:52:15.268Z,649.00
2023-04-12T12:53:13.701Z,649.00
2023-04-12T12:54:12.682Z,649.00
2023-04-12T12:55:13.692Z,643.00
2023-04-12T12:56:13.666Z,640.00
2023-04-12T12:57:12.670Z,639.00
2023-04-12T12:58:13.652Z,632.00
2023-04-12T12:59:13.645Z,630.00
2023-04-12T13:00:13.629Z,623.00
2023-04-12T13:01:12.640Z,620.00
2023-04-12T13:02:13.693Z,619.00
2023-04-12T13:03:13.789Z,615.00
2023-04-12T13:04:13.671Z,609.00
2023-04-12T13:05:13.703Z,602.00
2023-04-12T13:06:12.614Z,606.00
2023-04-12T13:07:13.582Z,599.00
2023-04-12T13:08:13.588Z,596.00
2023-04-12T13:09:12.564Z,588.00
2023-04-12T13:10:13.592Z,577.00
2023-04-12T13:11:13.965Z,583.00
2023-04-12T13:12:13.550Z,568.00
2023-04-12T13:13:13.561Z,572.00
2023-04-12T13:14:12.534Z,565.00
2023-04-12T13:15:22.308Z,558.00
2023-04-12T13:16:13.602Z,559.00
2023-04-12T13:17:13.513Z,558.00
2023-04-12T13:18:13.511Z,550.00
2023-04-12T13:19:13.532Z,549.00
2023-04-12T13:20:12.493Z,540.00
2023-04-12T13:21:13.479Z,540.00
2023-04-12T13:22:12.474Z,533.00
2023-04-12T13:23:13.479Z,537.00
2023-04-12T13:24:12.470Z,528.00
2023-04-12T13:25:13.457Z,535.00
2023-04-12T13:26:13.451Z,527.00
2023-04-12T13:27:15.162Z,530.00
2023-04-12T13:28:13.437Z,533.00
2023-04-12T13:29:13.443Z,531.00
2023-04-12T13:30:12.423Z,526.00
2023-04-12T13:31:13.515Z,523.00
2023-04-12T13:32:12.553Z,532.00
2023-04-12T13:33:18.373Z,547.00
2023-04-12T13:34:13.461Z,547.00
2023-04-12T13:35:13.429Z,550.00
2023-04-12T13:36:13.377Z,552.00
2023-04-12T13:37:13.370Z,556.00
2023-04-12T13:38:13.470Z,559.00
2023-04-12T13:39:13.393Z,564.00
2023-04-12T13:40:12.449Z,560.00
2023-04-12T13:41:13.357Z,565.00
2023-04-12T13:42:12.354Z,562.00
2023-04-12T13:43:12.348Z,567.00
2023-04-12T13:44:12.391Z,571.00
2023-04-12T13:45:13.326Z,566.00
2023-04-12T13:46:12.362Z,606.00
2023-04-12T13:47:12.314Z,1098.00
2023-04-12T13:48:13.410Z,1562.00
2023-04-12T13:49:13.357Z,1802.00
2023-04-12T13:50:13.287Z,2179.00
2023-04-12T13:51:12.341Z,2304.00
2023-04-12T13:52:13.268Z,2366.00
2023-04-12T13:53:13.283Z,2433.00
2023-04-12T13:54:12.264Z,2396.00
2023-04-12T13:55:13.354Z,2349.00
2023-04-12T13:56:13.267Z,2297.00
2023-04-12T13:57:13.240Z,2296.00
2023-04-12T13:58:12.252Z,2265.00
2023-04-12T13:59:13.233Z,2273.00
2023-04-12T14:00:12.213Z,2236.00
2023-04-12T14:01:12.232Z,2243.00
2023-04-12T14:02:13.263Z,2243.00
2023-04-12T14:03:12.238Z,2216.00
2023-04-12T14:04:12.255Z,2180.00
2023-04-12T14:05:13.245Z,2162.00
2023-04-12T14:06:13.170Z,2150.00
2023-04-12T14:07:13.217Z,2109.00
2023-04-12T14:08:13.154Z,2110.00
2023-04-12T14:09:13.164Z,2093.00
2023-04-12T14:10:13.193Z,2065.00
2023-04-12T14:11:13.152Z,2030.00
2023-04-12T14:12:13.158Z,2018.00
2023-04-12T14:13:13.197Z,2002.00
2023-04-12T14:14:14.764Z,1978.00
2023-04-12T14:15:13.132Z,1968.00
2023-04-12T14:16:12.105Z,1955.00
2023-04-12T14:17:13.198Z,1942.00
2023-04-12T14:18:13.146Z,1910.00
2023-04-12T14:19:13.088Z,1867.00
2023-04-12T14:20:13.123Z,1845.00
2023-04-12T14:21:13.058Z,1812.00
2023-04-12T14:22:13.154Z,1788.00
2023-04-12T14:23:12.070Z,1765.00
2023-04-12T14:24:12.035Z,1742.00
2023-04-12T14:25:12.048Z,1710.00
2023-04-12T14:26:13.047Z,1681.00
2023-04-12T14:27:13.032Z,1674.00
2023-04-12T14:28:13.042Z,1648.00
2023-04-12T14:29:12.020Z,1628.00
2023-04-12T14:30:13.027Z,1621.00
2023-04-12T14:31:12.039Z,1612.00
2023-04-12T14:32:13.019Z,1601.00
2023-04-12T14:33:13.136Z,1572.00
2023-04-12T14:34:12.982Z,1552.00
2023-04-12T14:35:12.976Z,1540.00
2023-04-12T14:36:12.963Z,1516.00
2023-04-12T14:37:12.948Z,1514.00
2023-04-12T14:38:12.942Z,1506.00
2023-04-12T14:39:13.970Z,1484.00
2023-04-12T14:40:12.964Z,1478.00
2023-04-12T14:41:11.934Z,1467.00
2023-04-12T14:42:11.928Z,1428.00
2023-04-12T14:43:12.935Z,1409.00
2023-04-12T14:44:11.909Z,1398.00
2023-04-12T14:45:11.925Z,1390.00
2023-04-12T14:46:12.020Z,1387.00
2023-04-12T14:47:12.884Z,1373.00
2023-04-12T14:48:11.893Z,1374.00
2023-04-12T14:49:11.885Z,1351.00
2023-04-12T14:50:12.885Z,1344.00
2023-04-12T14:51:11.879Z,1329.00
2023-04-12T14:52:11.852Z,1302.00
2023-04-12T14:53:11.870Z,1295.00
2023-04-12T14:54:12.855Z,1269.00
2023-04-12T14:55:11.853Z,1251.00
2023-04-12T14:56:11.827Z,1237.00
2023-04-12T14:57:12.846Z,1224.00
2023-04-12T14:58:12.855Z,1183.00
2023-04-12T14:59:12.878Z,1171.00
2023-04-12T15:00:12.848Z,1143.00
2023-04-12T15:01:12.788Z,1145.00
2023-04-12T15:02:12.942Z,1137.00
2023-04-12T15:03:13.087Z,1116.00
2023-04-12T15:04:11.917Z,1110.00
2023-04-12T15:05:11.908Z,1082.00
2023-04-12T15:06:11.768Z,1076.00
2023-04-12T15:07:11.763Z,1065.00
2023-04-12T15:08:12.738Z,1053.00
2023-04-12T15:09:11.728Z,1043.00
2023-04-12T15:10:11.737Z,1033.00
2023-04-12T15:11:12.740Z,1038.00
2023-04-12T15:12:11.727Z,1029.00
2023-04-12T15:13:11.742Z,1007.00
2023-04-12T15:14:11.779Z,1006.00
2023-04-12T15:15:12.810Z,982.00
2023-04-12T15:16:11.880Z,965.00
2023-04-12T15:17:12.905Z,956.00
2023-04-12T15:18:11.939Z,934.00
2023-04-12T15:19:18.667Z,917.00
2023-04-12T15:20:12.993Z,907.00
2023-04-12T15:21:13.002Z,880.00
2023-04-12T15:22:12.956Z,871.00
2023-04-12T15:23:12.949Z,837.00
2023-04-12T15:24:12.945Z,855.00
2023-04-12T15:25:11.995Z,834.00
2023-04-12T15:26:12.947Z,843.00
2023-04-12T15:27:12.954Z,881.00
2023-04-12T15:28:12.931Z,875.00
2023-04-12T15:29:12.921Z,878.00
